sensor_id;sensor_type;location;lat;lon;timestamp;temperature;humidity
5222;DHT22;2630;52.036;8.514;2023-12-22T00:02:19;5.50;99.90
5222;DHT22;2630;52.036;8.514;2023-12-22T00:04:45;5.50;99.90
5222;DHT22;2630;52.036;8.514;2023-12-22T00:09:36;5.40;99.90
5222;DHT22;2630;52.036;8.514;2023-12-22T00:12:02;5.40;99.90
5222;DHT22;2630;52.036;8.514;2023-12-22T00:14:28;5.40;99.90
5222;DHT22;2630;52.036;8.514;2023-12-22T00:16:54;5.40;99.90
5222;DHT22;2630;52.036;8.514;2023-12-22T00:19:19;5.40;99.90
5222;DHT22;2630;52.036;8.514;2023-12-22T00:21:45;5.50;99.90
5222;DHT22;2630;52.036;8.514;2023-12-22T00:24:10;5.50;99.90
5222;DHT22;2630;52.036;8.514;2023-12-22T00:26:36;5.60;99.90
5222;DHT22;2630;52.036;8.514;2023-12-22T00:31:27;5.60;99.90
5222;DHT22;2630;52.036;8.514;2023-12-22T00:33:53;5.60;99.90
5222;DHT22;2630;52.036;8.514;2023-12-22T00:36:19;5.70;99.90
5222;DHT22;2630;52.036;8.514;2023-12-22T00:38:48;5.70;99.90
5222;DHT22;2630;52.036;8.514;2023-12-22T00:41:14;5.70;99.90
5222;DHT22;2630;52.036;8.514;2023-12-22T00:43:39;5.80;99.90
5222;DHT22;2630;52.036;8.514;2023-12-22T00:46:05;5.70;99.90
5222;DHT22;2630;52.036;8.514;2023-12-22T00:48:31;5.70;99.90
5222;DHT22;2630;52.036;8.514;2023-12-22T00:50:56;5.70;99.90
5222;DHT22;2630;52.036;8.514;2023-12-22T00:58:13;5.20;99.90
5222;DHT22;2630;52.036;8.514;2023-12-22T01:00:39;5.20;99.90
5222;DHT22;2630;52.036;8.514;2023-12-22T01:05:30;5.20;99.90
5222;DHT22;2630;52.036;8.514;2023-12-22T01:07:56;5.30;99.90
5222;DHT22;2630;52.036;8.514;2023-12-22T01:12:48;5.40;99.90
5222;DHT22;2630;52.036;8.514;2023-12-22T01:15:13;5.50;99.90
5222;DHT22;2630;52.036;8.514;2023-12-22T01:20:05;5.60;99.90
5222;DHT22;2630;52.036;8.514;2023-12-22T01:27:26;5.80;99.90
5222;DHT22;2630;52.036;8.514;2023-12-22T01:29:52;5.80;99.90
5222;DHT22;2630;52.036;8.514;2023-12-22T01:32:18;5.90;99.90
5222;DHT22;2630;52.036;8.514;2023-12-22T01:34:44;5.90;99.90
5222;DHT22;2630;52.036;8.514;2023-12-22T01:39:36;5.40;99.90
5222;DHT22;2630;52.036;8.514;2023-12-22T01:42:01;5.10;99.90
5222;DHT22;2630;52.036;8.514;2023-12-22T01:46:53;4.60;99.90
5222;DHT22;2630;52.036;8.514;2023-12-22T01:49:20;4.40;99.90
5222;DHT22;2630;52.036;8.514;2023-12-22T01:51:46;4.20;99.90
5222;DHT22;2630;52.036;8.514;2023-12-22T01:54:14;4.10;99.90
5222;DHT22;2630;52.036;8.514;2023-12-22T01:59:07;4.00;99.90
5222;DHT22;2630;52.036;8.514;2023-12-22T02:01:33;4.00;99.90
5222;DHT22;2630;52.036;8.514;2023-12-22T02:03:59;4.00;99.90
5222;DHT22;2630;52.036;8.514;2023-12-22T02:06:25;4.00;99.90
5222;DHT22;2630;52.036;8.514;2023-12-22T02:13:46;4.30;99.90
5222;DHT22;2630;52.036;8.514;2023-12-22T02:16:22;4.40;99.90
5222;DHT22;2630;52.036;8.514;2023-12-22T02:18:54;4.50;99.90
5222;DHT22;2630;52.036;8.514;2023-12-22T02:21:20;4.60;99.90
5222;DHT22;2630;52.036;8.514;2023-12-22T02:26:37;4.80;99.90
5222;DHT22;2630;52.036;8.514;2023-12-22T02:29:05;4.80;99.90
5222;DHT22;2630;52.036;8.514;2023-12-22T02:36:39;4.90;99.90
5222;DHT22;2630;52.036;8.514;2023-12-22T02:39:06;4.90;99.90
5222;DHT22;2630;52.036;8.514;2023-12-22T02:43:59;4.80;99.90
5222;DHT22;2630;52.036;8.514;2023-12-22T02:46:24;4.80;99.90
5222;DHT22;2630;52.036;8.514;2023-12-22T02:48:50;4.70;99.90
5222;DHT22;2630;52.036;8.514;2023-12-22T02:51:15;4.70;99.90
5222;DHT22;2630;52.036;8.514;2023-12-22T02:53:41;4.70;99.90
5222;DHT22;2630;52.036;8.514;2023-12-22T02:56:07;4.60;99.90
5222;DHT22;2630;52.036;8.514;2023-12-22T02:58:32;4.60;99.90
5222;DHT22;2630;52.036;8.514;2023-12-22T03:00:58;4.60;99.90
5222;DHT22;2630;52.036;8.514;2023-12-22T03:03:23;4.60;99.90
5222;DHT22;2630;52.036;8.514;2023-12-22T03:08:15;4.60;99.90
5222;DHT22;2630;52.036;8.514;2023-12-22T03:10:40;4.60;99.90
5222;DHT22;2630;52.036;8.514;2023-12-22T03:15:32;4.60;99.90
5222;DHT22;2630;52.036;8.514;2023-12-22T03:17:58;4.60;99.90
5222;DHT22;2630;52.036;8.514;2023-12-22T03:20:23;4.60;99.90
5222;DHT22;2630;52.036;8.514;2023-12-22T03:22:49;4.60;99.90
5222;DHT22;2630;52.036;8.514;2023-12-22T03:25:14;4.70;99.90
5222;DHT22;2630;52.036;8.514;2023-12-22T03:32:32;4.80;99.90
5222;DHT22;2630;52.036;8.514;2023-12-22T03:34:57;4.90;99.90
5222;DHT22;2630;52.036;8.514;2023-12-22T03:37:23;5.00;99.90
5222;DHT22;2630;52.036;8.514;2023-12-22T03:39:49;5.10;99.90
5222;DHT22;2630;52.036;8.514;2023-12-22T03:42:14;5.20;99.90
5222;DHT22;2630;52.036;8.514;2023-12-22T03:44:40;5.30;99.90
5222;DHT22;2630;52.036;8.514;2023-12-22T03:47:05;5.30;99.90
5222;DHT22;2630;52.036;8.514;2023-12-22T03:49:33;5.40;99.90
5222;DHT22;2630;52.036;8.514;2023-12-22T03:51:58;5.50;99.90
5222;DHT22;2630;52.036;8.514;2023-12-22T03:54:24;5.50;99.90
5222;DHT22;2630;52.036;8.514;2023-12-22T03:56:49;5.50;99.90
5222;DHT22;2630;52.036;8.514;2023-12-22T03:59:15;5.50;99.90
5222;DHT22;2630;52.036;8.514;2023-12-22T04:01:44;5.40;99.90
5222;DHT22;2630;52.036;8.514;2023-12-22T04:04:09;5.40;99.90
5222;DHT22;2630;52.036;8.514;2023-12-22T04:06:38;5.40;99.90
5222;DHT22;2630;52.036;8.514;2023-12-22T04:09:04;5.40;99.90
5222;DHT22;2630;52.036;8.514;2023-12-22T04:11:30;5.50;99.90
5222;DHT22;2630;52.036;8.514;2023-12-22T04:13:56;5.50;99.90
5222;DHT22;2630;52.036;8.514;2023-12-22T04:16:21;5.50;99.90
5222;DHT22;2630;52.036;8.514;2023-12-22T04:18:47;5.40;99.90
5222;DHT22;2630;52.036;8.514;2023-12-22T04:23:38;5.20;99.90
5222;DHT22;2630;52.036;8.514;2023-12-22T04:26:04;5.10;99.90
5222;DHT22;2630;52.036;8.514;2023-12-22T04:30:55;4.90;99.90
5222;DHT22;2630;52.036;8.514;2023-12-22T04:33:21;4.80;99.90
5222;DHT22;2630;52.036;8.514;2023-12-22T04:35:46;4.80;99.90
5222;DHT22;2630;52.036;8.514;2023-12-22T04:38:12;4.80;99.90
5222;DHT22;2630;52.036;8.514;2023-12-22T04:40:37;4.80;99.90
5222;DHT22;2630;52.036;8.514;2023-12-22T04:43:03;4.80;99.90
5222;DHT22;2630;52.036;8.514;2023-12-22T04:47:55;5.00;99.90
5222;DHT22;2630;52.036;8.514;2023-12-22T04:50:20;5.00;99.90
5222;DHT22;2630;52.036;8.514;2023-12-22T04:52:46;5.00;99.90
5222;DHT22;2630;52.036;8.514;2023-12-22T04:55:11;5.10;99.90
5222;DHT22;2630;52.036;8.514;2023-12-22T04:57:37;5.00;99.90
5222;DHT22;2630;52.036;8.514;2023-12-22T05:00:03;5.00;99.90
5222;DHT22;2630;52.036;8.514;2023-12-22T05:02:28;5.00;99.90
5222;DHT22;2630;52.036;8.514;2023-12-22T05:04:54;5.00;99.90
5222;DHT22;2630;52.036;8.514;2023-12-22T05:09:46;5.10;99.90
5222;DHT22;2630;52.036;8.514;2023-12-22T05:12:11;5.10;99.90
5222;DHT22;2630;52.036;8.514;2023-12-22T05:14:37;5.10;99.90
5222;DHT22;2630;52.036;8.514;2023-12-22T05:17:02;5.10;99.90
5222;DHT22;2630;52.036;8.514;2023-12-22T05:19:28;5.10;99.90
5222;DHT22;2630;52.036;8.514;2023-12-22T05:24:21;5.20;99.90
5222;DHT22;2630;52.036;8.514;2023-12-22T05:26:47;5.20;99.90
5222;DHT22;2630;52.036;8.514;2023-12-22T05:29:13;5.20;99.90
5222;DHT22;2630;52.036;8.514;2023-12-22T05:31:38;5.20;99.90
5222;DHT22;2630;52.036;8.514;2023-12-22T05:34:05;5.10;99.90
5222;DHT22;2630;52.036;8.514;2023-12-22T05:36:31;5.10;99.90
5222;DHT22;2630;52.036;8.514;2023-12-22T05:41:22;4.90;99.90
5222;DHT22;2630;52.036;8.514;2023-12-22T05:43:48;4.80;99.90
5222;DHT22;2630;52.036;8.514;2023-12-22T05:46:13;4.70;99.90
5222;DHT22;2630;52.036;8.514;2023-12-22T05:48:39;4.60;99.90
5222;DHT22;2630;52.036;8.514;2023-12-22T05:51:04;4.60;99.90
5222;DHT22;2630;52.036;8.514;2023-12-22T05:53:33;4.50;99.90
5222;DHT22;2630;52.036;8.514;2023-12-22T05:55:58;4.50;99.90
5222;DHT22;2630;52.036;8.514;2023-12-22T05:58:24;4.40;99.90
5222;DHT22;2630;52.036;8.514;2023-12-22T06:00:49;4.40;99.90
5222;DHT22;2630;52.036;8.514;2023-12-22T06:03:15;4.50;99.90
5222;DHT22;2630;52.036;8.514;2023-12-22T06:05:41;4.50;99.90
5222;DHT22;2630;52.036;8.514;2023-12-22T06:10:32;4.50;99.90
5222;DHT22;2630;52.036;8.514;2023-12-22T06:15:25;4.60;99.90
5222;DHT22;2630;52.036;8.514;2023-12-22T06:17:50;4.60;99.90
5222;DHT22;2630;52.036;8.514;2023-12-22T06:20:16;4.70;99.90
5222;DHT22;2630;52.036;8.514;2023-12-22T06:22:41;4.70;99.90
5222;DHT22;2630;52.036;8.514;2023-12-22T06:25:08;4.80;99.90
5222;DHT22;2630;52.036;8.514;2023-12-22T06:27:34;4.80;99.90
5222;DHT22;2630;52.036;8.514;2023-12-22T06:30:00;4.90;99.90
5222;DHT22;2630;52.036;8.514;2023-12-22T06:32:26;4.90;99.90
5222;DHT22;2630;52.036;8.514;2023-12-22T06:34:51;4.90;99.90
5222;DHT22;2630;52.036;8.514;2023-12-22T06:37:17;5.00;99.90
5222;DHT22;2630;52.036;8.514;2023-12-22T06:39:42;5.00;99.90
5222;DHT22;2630;52.036;8.514;2023-12-22T06:42:08;5.10;99.90
5222;DHT22;2630;52.036;8.514;2023-12-22T06:44:37;5.10;99.90
5222;DHT22;2630;52.036;8.514;2023-12-22T06:47:03;5.20;99.90
5222;DHT22;2630;52.036;8.514;2023-12-22T06:49:28;5.20;99.90
5222;DHT22;2630;52.036;8.514;2023-12-22T06:51:54;5.20;99.90
5222;DHT22;2630;52.036;8.514;2023-12-22T06:59:11;5.30;99.90
5222;DHT22;2630;52.036;8.514;2023-12-22T07:04:04;5.40;99.90
5222;DHT22;2630;52.036;8.514;2023-12-22T07:06:31;5.40;99.90
5222;DHT22;2630;52.036;8.514;2023-12-22T07:11:39;5.50;99.90
5222;DHT22;2630;52.036;8.514;2023-12-22T07:14:05;5.50;99.90
5222;DHT22;2630;52.036;8.514;2023-12-22T07:18:56;5.50;99.90
5222;DHT22;2630;52.036;8.514;2023-12-22T07:21:22;5.50;99.90
5222;DHT22;2630;52.036;8.514;2023-12-22T07:23:48;5.50;99.90
5222;DHT22;2630;52.036;8.514;2023-12-22T07:26:13;5.50;99.90
5222;DHT22;2630;52.036;8.514;2023-12-22T07:28:39;5.60;99.90
5222;DHT22;2630;52.036;8.514;2023-12-22T07:31:04;5.60;99.90
5222;DHT22;2630;52.036;8.514;2023-12-22T07:38:22;5.70;99.90
5222;DHT22;2630;52.036;8.514;2023-12-22T07:40:48;5.60;99.90
5222;DHT22;2630;52.036;8.514;2023-12-22T07:43:15;5.70;99.90
5222;DHT22;2630;52.036;8.514;2023-12-22T07:45:40;5.70;99.90
5222;DHT22;2630;52.036;8.514;2023-12-22T08:02:45;5.80;99.90
5222;DHT22;2630;52.036;8.514;2023-12-22T08:05:12;5.80;99.90
5222;DHT22;2630;52.036;8.514;2023-12-22T08:10:04;5.80;99.90
5222;DHT22;2630;52.036;8.514;2023-12-22T08:12:30;5.90;99.90
5222;DHT22;2630;52.036;8.514;2023-12-22T08:17:25;5.90;99.90
5222;DHT22;2630;52.036;8.514;2023-12-22T08:19:51;6.00;99.90
5222;DHT22;2630;52.036;8.514;2023-12-22T08:22:17;6.00;99.90
5222;DHT22;2630;52.036;8.514;2023-12-22T08:24:43;6.00;99.90
5222;DHT22;2630;52.036;8.514;2023-12-22T08:27:09;6.10;99.90
5222;DHT22;2630;52.036;8.514;2023-12-22T08:32:01;6.10;99.90
5222;DHT22;2630;52.036;8.514;2023-12-22T08:39:19;6.10;99.90
5222;DHT22;2630;52.036;8.514;2023-12-22T08:44:11;6.20;99.90
5222;DHT22;2630;52.036;8.514;2023-12-22T08:46:36;6.20;99.90
5222;DHT22;2630;52.036;8.514;2023-12-22T08:49:02;6.30;99.90
5222;DHT22;2630;52.036;8.514;2023-12-22T08:51:28;6.30;99.90
5222;DHT22;2630;52.036;8.514;2023-12-22T08:53:54;6.40;99.90
5222;DHT22;2630;52.036;8.514;2023-12-22T08:56:24;6.40;99.90
5222;DHT22;2630;52.036;8.514;2023-12-22T08:58:53;6.40;99.90
5222;DHT22;2630;52.036;8.514;2023-12-22T09:01:24;6.40;99.90
5222;DHT22;2630;52.036;8.514;2023-12-22T09:03:50;6.40;99.90
5222;DHT22;2630;52.036;8.514;2023-12-22T09:11:12;6.40;99.90
5222;DHT22;2630;52.036;8.514;2023-12-22T09:16:04;6.50;99.90
5222;DHT22;2630;52.036;8.514;2023-12-22T09:18:34;6.50;99.90
5222;DHT22;2630;52.036;8.514;2023-12-22T09:21:00;6.50;99.90
5222;DHT22;2630;52.036;8.514;2023-12-22T09:23:25;6.50;99.90
5222;DHT22;2630;52.036;8.514;2023-12-22T09:25:51;6.60;99.90
5222;DHT22;2630;52.036;8.514;2023-12-22T09:30:42;6.50;99.90
5222;DHT22;2630;52.036;8.514;2023-12-22T09:43:06;6.40;99.90
5222;DHT22;2630;52.036;8.514;2023-12-22T09:48:00;6.40;99.90
5222;DHT22;2630;52.036;8.514;2023-12-22T09:50:29;6.40;99.90
5222;DHT22;2630;52.036;8.514;2023-12-22T09:52:55;6.40;99.90
5222;DHT22;2630;52.036;8.514;2023-12-22T09:55:22;6.30;99.90
5222;DHT22;2630;52.036;8.514;2023-12-22T09:57:49;6.30;99.90
5222;DHT22;2630;52.036;8.514;2023-12-22T10:02:42;6.30;99.90
5222;DHT22;2630;52.036;8.514;2023-12-22T10:10:03;6.30;99.90
5222;DHT22;2630;52.036;8.514;2023-12-22T10:14:56;6.30;99.90
5222;DHT22;2630;52.036;8.514;2023-12-22T10:19:50;6.30;99.90
5222;DHT22;2630;52.036;8.514;2023-12-22T10:22:16;6.30;99.90
5222;DHT22;2630;52.036;8.514;2023-12-22T10:24:44;6.30;99.90
5222;DHT22;2630;52.036;8.514;2023-12-22T10:27:14;6.30;99.90
5222;DHT22;2630;52.036;8.514;2023-12-22T10:32:07;6.40;99.90
5222;DHT22;2630;52.036;8.514;2023-12-22T10:34:34;6.40;99.90
5222;DHT22;2630;52.036;8.514;2023-12-22T10:37:00;6.40;99.90
5222;DHT22;2630;52.036;8.514;2023-12-22T10:39:30;6.40;99.90
5222;DHT22;2630;52.036;8.514;2023-12-22T10:41:57;6.40;99.90
5222;DHT22;2630;52.036;8.514;2023-12-22T10:44:27;6.50;99.90
5222;DHT22;2630;52.036;8.514;2023-12-22T10:46:52;6.50;99.90
5222;DHT22;2630;52.036;8.514;2023-12-22T10:49:20;6.50;99.90
5222;DHT22;2630;52.036;8.514;2023-12-22T10:54:12;6.50;99.90
5222;DHT22;2630;52.036;8.514;2023-12-22T10:59:03;6.60;99.90
5222;DHT22;2630;52.036;8.514;2023-12-22T11:01:30;6.60;99.90
5222;DHT22;2630;52.036;8.514;2023-12-22T11:06:29;6.60;99.90
5222;DHT22;2630;52.036;8.514;2023-12-22T11:13:56;6.70;99.90
5222;DHT22;2630;52.036;8.514;2023-12-22T11:16:24;6.70;99.90
5222;DHT22;2630;52.036;8.514;2023-12-22T11:21:16;6.60;99.90
5222;DHT22;2630;52.036;8.514;2023-12-22T11:26:08;6.70;99.90
5222;DHT22;2630;52.036;8.514;2023-12-22T11:31:04;6.70;99.90
5222;DHT22;2630;52.036;8.514;2023-12-22T11:33:35;6.70;99.90
5222;DHT22;2630;52.036;8.514;2023-12-22T11:43:25;6.80;99.90
5222;DHT22;2630;52.036;8.514;2023-12-22T11:48:17;6.80;99.90
5222;DHT22;2630;52.036;8.514;2023-12-22T11:50:43;6.80;99.90
5222;DHT22;2630;52.036;8.514;2023-12-22T11:53:25;6.80;99.90
5222;DHT22;2630;52.036;8.514;2023-12-22T11:56:04;6.90;99.90
5222;DHT22;2630;52.036;8.514;2023-12-22T12:01:14;6.90;99.90
5222;DHT22;2630;52.036;8.514;2023-12-22T12:04:01;6.80;99.90
5222;DHT22;2630;52.036;8.514;2023-12-22T12:08:58;6.80;99.90
5222;DHT22;2630;52.036;8.514;2023-12-22T12:14:14;6.60;99.90
5222;DHT22;2630;52.036;8.514;2023-12-22T12:16:40;6.60;99.90
5222;DHT22;2630;52.036;8.514;2023-12-22T12:19:08;6.60;99.90
5222;DHT22;2630;52.036;8.514;2023-12-22T12:21:34;6.60;99.90
5222;DHT22;2630;52.036;8.514;2023-12-22T12:26:27;6.60;99.90
5222;DHT22;2630;52.036;8.514;2023-12-22T12:28:52;6.70;99.90
5222;DHT22;2630;52.036;8.514;2023-12-22T12:31:18;6.60;99.90
5222;DHT22;2630;52.036;8.514;2023-12-22T12:33:44;6.60;99.90
5222;DHT22;2630;52.036;8.514;2023-12-22T12:38:54;6.60;99.90
5222;DHT22;2630;52.036;8.514;2023-12-22T12:41:44;6.60;99.90
5222;DHT22;2630;52.036;8.514;2023-12-22T12:44:13;6.70;99.90
5222;DHT22;2630;52.036;8.514;2023-12-22T12:46:40;6.70;99.90
5222;DHT22;2630;52.036;8.514;2023-12-22T12:49:11;6.60;99.90
5222;DHT22;2630;52.036;8.514;2023-12-22T12:51:43;6.60;99.90
5222;DHT22;2630;52.036;8.514;2023-12-22T12:54:10;6.70;99.90
5222;DHT22;2630;52.036;8.514;2023-12-22T12:56:44;6.70;99.90
5222;DHT22;2630;52.036;8.514;2023-12-22T13:01:40;6.70;99.90
5222;DHT22;2630;52.036;8.514;2023-12-22T13:08:59;6.70;99.90
5222;DHT22;2630;52.036;8.514;2023-12-22T13:11:26;6.70;99.90
5222;DHT22;2630;52.036;8.514;2023-12-22T13:18:51;6.80;99.90
5222;DHT22;2630;52.036;8.514;2023-12-22T13:21:16;6.80;99.90
5222;DHT22;2630;52.036;8.514;2023-12-22T13:28:44;6.80;99.90
5222;DHT22;2630;52.036;8.514;2023-12-22T13:31:11;6.90;99.90
5222;DHT22;2630;52.036;8.514;2023-12-22T13:33:39;6.90;99.90
5222;DHT22;2630;52.036;8.514;2023-12-22T13:36:05;6.90;99.90
5222;DHT22;2630;52.036;8.514;2023-12-22T13:38:31;6.90;99.90
5222;DHT22;2630;52.036;8.514;2023-12-22T13:43:30;7.00;99.90
5222;DHT22;2630;52.036;8.514;2023-12-22T13:45:56;7.00;99.90
5222;DHT22;2630;52.036;8.514;2023-12-22T13:48:23;6.90;99.90
5222;DHT22;2630;52.036;8.514;2023-12-22T13:53:25;6.80;99.90
5222;DHT22;2630;52.036;8.514;2023-12-22T13:55:58;6.80;99.90
5222;DHT22;2630;52.036;8.514;2023-12-22T14:03:17;6.70;99.90
5222;DHT22;2630;52.036;8.514;2023-12-22T14:10:35;6.50;99.90
5222;DHT22;2630;52.036;8.514;2023-12-22T14:15:27;6.50;99.90
5222;DHT22;2630;52.036;8.514;2023-12-22T14:20:22;6.50;99.90
5222;DHT22;2630;52.036;8.514;2023-12-22T14:22:47;6.50;99.90
5222;DHT22;2630;52.036;8.514;2023-12-22T14:25:13;6.40;99.90
5222;DHT22;2630;52.036;8.514;2023-12-22T14:27:38;6.40;99.90
5222;DHT22;2630;52.036;8.514;2023-12-22T14:32:30;6.40;99.90
5222;DHT22;2630;52.036;8.514;2023-12-22T14:34:56;6.40;99.90
5222;DHT22;2630;52.036;8.514;2023-12-22T14:37:22;6.40;99.90
5222;DHT22;2630;52.036;8.514;2023-12-22T14:42:14;6.50;99.90
5222;DHT22;2630;52.036;8.514;2023-12-22T14:51:58;6.30;99.90
5222;DHT22;2630;52.036;8.514;2023-12-22T14:54:25;6.30;99.90
5222;DHT22;2630;52.036;8.514;2023-12-22T14:56:51;6.30;99.90
5222;DHT22;2630;52.036;8.514;2023-12-22T14:59:17;6.30;99.90
5222;DHT22;2630;52.036;8.514;2023-12-22T15:01:43;6.30;99.90
5222;DHT22;2630;52.036;8.514;2023-12-22T15:04:10;6.30;99.90
5222;DHT22;2630;52.036;8.514;2023-12-22T15:06:40;6.30;99.90
5222;DHT22;2630;52.036;8.514;2023-12-22T15:09:09;6.30;99.90
5222;DHT22;2630;52.036;8.514;2023-12-22T15:11:46;6.30;99.90
5222;DHT22;2630;52.036;8.514;2023-12-22T15:14:12;6.30;99.90
5222;DHT22;2630;52.036;8.514;2023-12-22T15:16:41;6.20;99.90
5222;DHT22;2630;52.036;8.514;2023-12-22T15:19:07;6.30;99.90
5222;DHT22;2630;52.036;8.514;2023-12-22T15:21:32;6.30;99.90
5222;DHT22;2630;52.036;8.514;2023-12-22T15:23:58;6.30;99.90
5222;DHT22;2630;52.036;8.514;2023-12-22T15:33:45;6.30;99.90
5222;DHT22;2630;52.036;8.514;2023-12-22T15:36:17;6.30;99.90
5222;DHT22;2630;52.036;8.514;2023-12-22T15:38:43;6.30;99.90
5222;DHT22;2630;52.036;8.514;2023-12-22T15:46:04;6.30;99.90
5222;DHT22;2630;52.036;8.514;2023-12-22T15:48:31;6.40;99.90
5222;DHT22;2630;52.036;8.514;2023-12-22T15:50:57;6.40;99.90
5222;DHT22;2630;52.036;8.514;2023-12-22T15:53:23;6.40;99.90
5222;DHT22;2630;52.036;8.514;2023-12-22T15:55:49;6.40;99.90
5222;DHT22;2630;52.036;8.514;2023-12-22T15:58:14;6.40;99.90
5222;DHT22;2630;52.036;8.514;2023-12-22T16:05:32;6.40;99.90
5222;DHT22;2630;52.036;8.514;2023-12-22T16:07:57;6.50;99.90
5222;DHT22;2630;52.036;8.514;2023-12-22T16:10:25;6.50;99.90
5222;DHT22;2630;52.036;8.514;2023-12-22T16:12:51;6.50;99.90
5222;DHT22;2630;52.036;8.514;2023-12-22T16:17:43;6.50;99.90
5222;DHT22;2630;52.036;8.514;2023-12-22T16:20:09;6.40;99.90
5222;DHT22;2630;52.036;8.514;2023-12-22T16:22:37;6.50;99.90
5222;DHT22;2630;52.036;8.514;2023-12-22T16:25:03;6.50;99.90
5222;DHT22;2630;52.036;8.514;2023-12-22T16:27:29;6.50;99.90
5222;DHT22;2630;52.036;8.514;2023-12-22T16:32:20;6.60;99.90
5222;DHT22;2630;52.036;8.514;2023-12-22T16:39:51;6.50;99.90
5222;DHT22;2630;52.036;8.514;2023-12-22T16:42:18;6.50;99.90
5222;DHT22;2630;52.036;8.514;2023-12-22T16:44:47;6.50;99.90
5222;DHT22;2630;52.036;8.514;2023-12-22T16:49:39;6.60;99.90
5222;DHT22;2630;52.036;8.514;2023-12-22T16:52:04;6.60;99.90
5222;DHT22;2630;52.036;8.514;2023-12-22T16:54:30;6.60;99.90
5222;DHT22;2630;52.036;8.514;2023-12-22T17:11:42;6.70;99.90
5222;DHT22;2630;52.036;8.514;2023-12-22T17:21:28;6.60;99.90
5222;DHT22;2630;52.036;8.514;2023-12-22T17:23:54;6.60;99.90
5222;DHT22;2630;52.036;8.514;2023-12-22T17:31:14;6.70;99.90
5222;DHT22;2630;52.036;8.514;2023-12-22T17:33:40;6.70;99.90
5222;DHT22;2630;52.036;8.514;2023-12-22T17:36:06;6.70;99.90
5222;DHT22;2630;52.036;8.514;2023-12-22T17:38:32;6.70;99.90
5222;DHT22;2630;52.036;8.514;2023-12-22T17:43:23;6.80;99.90
5222;DHT22;2630;52.036;8.514;2023-12-22T17:45:49;6.80;99.90
5222;DHT22;2630;52.036;8.514;2023-12-22T17:48:14;6.80;99.90
5222;DHT22;2630;52.036;8.514;2023-12-22T17:50:40;6.80;99.90
5222;DHT22;2630;52.036;8.514;2023-12-22T17:55:37;6.80;99.90
5222;DHT22;2630;52.036;8.514;2023-12-22T17:58:02;6.80;99.90
5222;DHT22;2630;52.036;8.514;2023-12-22T18:00:28;6.80;99.90
5222;DHT22;2630;52.036;8.514;2023-12-22T18:02:53;6.80;99.90
5222;DHT22;2630;52.036;8.514;2023-12-22T18:05:19;6.80;99.90
5222;DHT22;2630;52.036;8.514;2023-12-22T18:07:45;6.90;99.90
5222;DHT22;2630;52.036;8.514;2023-12-22T18:10:10;6.90;99.90
5222;DHT22;2630;52.036;8.514;2023-12-22T18:17:28;6.90;99.90
5222;DHT22;2630;52.036;8.514;2023-12-22T18:22:20;6.90;99.90
5222;DHT22;2630;52.036;8.514;2023-12-22T18:27:11;6.90;99.90
5222;DHT22;2630;52.036;8.514;2023-12-22T18:32:04;6.90;99.90
5222;DHT22;2630;52.036;8.514;2023-12-22T18:34:30;7.00;99.90
5222;DHT22;2630;52.036;8.514;2023-12-22T18:36:55;7.00;99.90
5222;DHT22;2630;52.036;8.514;2023-12-22T18:39:21;7.00;99.90
5222;DHT22;2630;52.036;8.514;2023-12-22T18:41:46;7.10;99.90
5222;DHT22;2630;52.036;8.514;2023-12-22T18:44:12;7.10;99.90
5222;DHT22;2630;52.036;8.514;2023-12-22T18:46:37;7.10;99.90
5222;DHT22;2630;52.036;8.514;2023-12-22T18:51:30;7.10;99.90
5222;DHT22;2630;52.036;8.514;2023-12-22T18:53:56;7.10;99.90
5222;DHT22;2630;52.036;8.514;2023-12-22T18:58:48;7.10;99.90
5222;DHT22;2630;52.036;8.514;2023-12-22T19:03:40;7.00;99.90
5222;DHT22;2630;52.036;8.514;2023-12-22T19:11:01;7.00;99.90
5222;DHT22;2630;52.036;8.514;2023-12-22T19:18:21;7.00;99.90
5222;DHT22;2630;52.036;8.514;2023-12-22T19:20:47;7.00;99.90
5222;DHT22;2630;52.036;8.514;2023-12-22T19:25:39;7.00;99.90
5222;DHT22;2630;52.036;8.514;2023-12-22T19:28:06;7.00;99.90
5222;DHT22;2630;52.036;8.514;2023-12-22T19:30:32;7.00;99.90
5222;DHT22;2630;52.036;8.514;2023-12-22T19:42:42;7.00;99.90
5222;DHT22;2630;52.036;8.514;2023-12-22T19:45:08;6.90;99.90
5222;DHT22;2630;52.036;8.514;2023-12-22T19:47:40;6.90;99.90
5222;DHT22;2630;52.036;8.514;2023-12-22T19:55:00;6.90;99.90
5222;DHT22;2630;52.036;8.514;2023-12-22T19:59:53;6.80;99.90
5222;DHT22;2630;52.036;8.514;2023-12-22T20:02:18;6.70;99.90
5222;DHT22;2630;52.036;8.514;2023-12-22T20:07:10;6.70;99.90
5222;DHT22;2630;52.036;8.514;2023-12-22T20:12:02;6.60;99.90
5222;DHT22;2630;52.036;8.514;2023-12-22T20:16:53;6.60;99.90
5222;DHT22;2630;52.036;8.514;2023-12-22T20:19:19;6.60;99.90
5222;DHT22;2630;52.036;8.514;2023-12-22T20:21:45;6.60;99.90
5222;DHT22;2630;52.036;8.514;2023-12-22T20:24:10;6.60;99.90
5222;DHT22;2630;52.036;8.514;2023-12-22T20:26:36;6.60;99.90
5222;DHT22;2630;52.036;8.514;2023-12-22T20:29:01;6.60;99.90
5222;DHT22;2630;52.036;8.514;2023-12-22T20:31:27;6.60;99.90
5222;DHT22;2630;52.036;8.514;2023-12-22T20:33:52;6.60;99.90
5222;DHT22;2630;52.036;8.514;2023-12-22T20:36:18;6.50;99.90
5222;DHT22;2630;52.036;8.514;2023-12-22T20:41:09;6.50;99.90
5222;DHT22;2630;52.036;8.514;2023-12-22T20:43:35;6.50;99.90
5222;DHT22;2630;52.036;8.514;2023-12-22T20:46:01;6.50;99.90
5222;DHT22;2630;52.036;8.514;2023-12-22T20:48:26;6.40;99.90
5222;DHT22;2630;52.036;8.514;2023-12-22T20:50:52;6.40;99.90
5222;DHT22;2630;52.036;8.514;2023-12-22T20:55:43;6.30;99.90
5222;DHT22;2630;52.036;8.514;2023-12-22T21:03:02;6.30;99.90
5222;DHT22;2630;52.036;8.514;2023-12-22T21:05:28;6.30;99.90
5222;DHT22;2630;52.036;8.514;2023-12-22T21:07:54;6.30;99.90
5222;DHT22;2630;52.036;8.514;2023-12-22T21:12:47;6.20;99.90
5222;DHT22;2630;52.036;8.514;2023-12-22T21:17:40;6.20;99.90
5222;DHT22;2630;52.036;8.514;2023-12-22T21:20:15;6.20;99.90
5222;DHT22;2630;52.036;8.514;2023-12-22T21:22:40;6.20;99.90
5222;DHT22;2630;52.036;8.514;2023-12-22T21:25:08;6.20;99.90
5222;DHT22;2630;52.036;8.514;2023-12-22T21:27:34;6.10;99.90
5222;DHT22;2630;52.036;8.514;2023-12-22T21:29:59;6.10;99.90
5222;DHT22;2630;52.036;8.514;2023-12-22T21:34:53;6.10;99.90
5222;DHT22;2630;52.036;8.514;2023-12-22T21:37:18;6.10;99.90
5222;DHT22;2630;52.036;8.514;2023-12-22T21:39:46;6.10;99.90
5222;DHT22;2630;52.036;8.514;2023-12-22T21:44:41;6.20;99.90
5222;DHT22;2630;52.036;8.514;2023-12-22T21:49:34;6.20;99.90
5222;DHT22;2630;52.036;8.514;2023-12-22T21:52:00;6.20;99.90
5222;DHT22;2630;52.036;8.514;2023-12-22T22:04:16;6.40;99.90
5222;DHT22;2630;52.036;8.514;2023-12-22T22:11:36;6.20;99.90
5222;DHT22;2630;52.036;8.514;2023-12-22T22:14:01;6.20;99.90
5222;DHT22;2630;52.036;8.514;2023-12-22T22:16:28;6.10;99.90
5222;DHT22;2630;52.036;8.514;2023-12-22T22:21:19;6.00;99.90
5222;DHT22;2630;52.036;8.514;2023-12-22T22:23:45;5.90;99.90
5222;DHT22;2630;52.036;8.514;2023-12-22T22:26:11;5.90;99.90
5222;DHT22;2630;52.036;8.514;2023-12-22T22:28:37;5.90;99.90
5222;DHT22;2630;52.036;8.514;2023-12-22T22:31:04;5.60;99.90
5222;DHT22;2630;52.036;8.514;2023-12-22T22:35:56;4.90;99.90
5222;DHT22;2630;52.036;8.514;2023-12-22T22:38:22;4.60;99.90
5222;DHT22;2630;52.036;8.514;2023-12-22T22:40:48;4.50;99.90
5222;DHT22;2630;52.036;8.514;2023-12-22T22:43:13;4.40;99.90
5222;DHT22;2630;52.036;8.514;2023-12-22T22:45:39;4.30;99.90
5222;DHT22;2630;52.036;8.514;2023-12-22T22:48:07;4.30;99.90
5222;DHT22;2630;52.036;8.514;2023-12-22T22:50:33;4.30;99.90
5222;DHT22;2630;52.036;8.514;2023-12-22T22:53:00;4.40;99.90
5222;DHT22;2630;52.036;8.514;2023-12-22T22:57:54;4.50;99.90
5222;DHT22;2630;52.036;8.514;2023-12-22T23:00:20;4.60;99.90
5222;DHT22;2630;52.036;8.514;2023-12-22T23:02:53;4.70;99.90